createdAt,value
2019-01-10T00:00:37.652Z,4.30
2019-01-10T00:04:50.269Z,4.93
2019-01-10T00:09:02.784Z,3.97
2019-01-10T00:13:15.736Z,4.33
2019-01-10T00:17:28.072Z,4.43
2019-01-10T00:21:41.514Z,4.20
2019-01-10T00:25:53.969Z,4.57
2019-01-10T00:30:08.925Z,4.23
2019-01-10T00:34:22.236Z,4.17
2019-01-10T00:38:35.195Z,4.50
2019-01-10T00:42:49.624Z,4.47
2019-01-10T00:47:02.112Z,4.00
2019-01-10T00:51:14.421Z,4.03
2019-01-10T00:55:26.764Z,3.97
2019-01-10T00:59:39.353Z,4.60
2019-01-10T01:03:51.805Z,4.37
2019-01-10T01:08:04.118Z,4.47
2019-01-10T01:12:16.900Z,3.93
2019-01-10T01:16:29.954Z,3.73
2019-01-10T01:20:42.187Z,4.17
2019-01-10T01:24:54.740Z,3.93
2019-01-10T01:29:07.554Z,4.60
2019-01-10T01:33:19.840Z,3.83
2019-01-10T01:37:32.243Z,3.90
2019-01-10T01:41:45.278Z,3.70
2019-01-10T01:45:57.477Z,3.60
2019-01-10T01:50:12.007Z,3.77
2019-01-10T01:54:24.259Z,4.17
2019-01-10T01:58:36.953Z,4.13
2019-01-10T02:02:50.636Z,4.90
2019-01-10T02:07:02.958Z,4.17
2019-01-10T02:11:15.758Z,4.63
2019-01-10T02:15:29.453Z,3.83
2019-01-10T02:19:41.946Z,3.70
2019-01-10T02:23:54.313Z,3.80
2019-01-10T02:28:07.045Z,3.30
2019-01-10T02:32:19.430Z,3.97
2019-01-10T02:36:31.796Z,3.27
2019-01-10T02:40:44.489Z,3.63
2019-01-10T02:44:56.825Z,3.40
2019-01-10T02:49:09.635Z,3.73
2019-01-10T02:53:22.086Z,3.53
2019-01-10T02:57:34.398Z,3.30
2019-01-10T03:01:46.991Z,3.70
2019-01-10T03:05:59.437Z,3.03
2019-01-10T03:10:13.229Z,3.43
2019-01-10T03:14:25.965Z,3.27
2019-01-10T03:18:38.489Z,3.70
2019-01-10T03:22:51.309Z,3.33
2019-01-10T03:27:03.937Z,3.17
2019-01-10T03:31:16.913Z,3.30
2019-01-10T03:35:29.420Z,3.20
2019-01-10T03:39:42.408Z,3.17
2019-01-10T03:43:54.871Z,2.70
2019-01-10T03:48:07.452Z,3.20
2019-01-10T03:52:20.061Z,3.20
2019-01-10T03:56:32.393Z,3.00
2019-01-10T04:00:45.098Z,3.53
2019-01-10T04:04:57.662Z,3.23
2019-01-10T04:09:10.579Z,3.17
2019-01-10T04:13:23.106Z,3.40
2019-01-10T04:17:35.390Z,3.30
2019-01-10T04:21:48.067Z,3.50
2019-01-10T04:26:00.626Z,3.30
2019-01-10T04:30:21.351Z,3.30
2019-01-10T04:34:33.684Z,3.87
2019-01-10T04:38:46.572Z,3.27
2019-01-10T04:42:59.182Z,4.30
2019-01-10T04:47:12.016Z,4.20
2019-01-10T04:51:24.440Z,4.03
2019-01-10T04:55:36.765Z,4.13
2019-01-10T04:59:49.362Z,4.40
2019-01-10T05:04:01.702Z,3.87
2019-01-10T05:08:13.921Z,3.57
2019-01-10T05:12:26.620Z,4.03
2019-01-10T05:16:38.961Z,3.93
2019-01-10T05:20:52.404Z,4.03
2019-01-10T05:25:04.965Z,4.03
2019-01-10T05:29:17.660Z,3.93
2019-01-10T05:33:30.161Z,4.63
2019-01-10T05:37:43.501Z,4.00
2019-01-10T05:41:56.390Z,4.00
2019-01-10T05:46:08.835Z,5.07
2019-01-10T05:50:22.275Z,4.77
2019-01-10T05:54:34.669Z,4.57
2019-01-10T05:58:47.276Z,4.20
2019-01-10T06:03:00.104Z,7.33
2019-01-10T06:07:12.825Z,4.07
2019-01-10T06:11:26.471Z,4.87
2019-01-10T06:15:38.829Z,4.73
2019-01-10T06:19:52.261Z,5.10
2019-01-10T06:24:04.454Z,4.87
2019-01-10T06:28:17.221Z,5.57
2019-01-10T06:32:29.673Z,5.73
2019-01-10T06:36:42.680Z,5.40
2019-01-10T06:40:55.188Z,4.67
2019-01-10T06:45:09.099Z,5.13
2019-01-10T06:49:21.690Z,5.20
2019-01-10T06:53:34.422Z,5.73
2019-01-10T06:57:47.371Z,5.67
2019-01-10T07:01:59.870Z,6.10
2019-01-10T07:06:12.675Z,5.63
2019-01-10T07:10:28.804Z,6.40
2019-01-10T07:14:41.097Z,6.00
2019-01-10T07:18:53.780Z,5.73
2019-01-10T07:23:06.448Z,5.40
2019-01-10T07:27:18.965Z,5.90
2019-01-10T07:31:31.939Z,5.87
2019-01-10T07:35:44.653Z,6.13
2019-01-10T07:39:57.543Z,6.70
2019-01-10T07:44:10.178Z,6.53
2019-01-10T07:48:22.994Z,6.73
2019-01-10T07:52:35.957Z,6.47
2019-01-10T07:56:48.550Z,6.33
2019-01-10T08:01:01.008Z,7.13
2019-01-10T08:05:13.764Z,6.77
2019-01-10T08:09:26.245Z,7.37
2019-01-10T08:13:39.116Z,7.03
2019-01-10T08:17:51.682Z,7.07
2019-01-10T08:22:04.466Z,7.03
2019-01-10T08:26:17.125Z,7.17
2019-01-10T08:30:29.719Z,8.23
2019-01-10T08:34:42.450Z,7.20
2019-01-10T08:38:54.770Z,6.57
2019-01-10T08:43:07.559Z,6.63
2019-01-10T08:47:19.914Z,6.40
2019-01-10T08:51:31.894Z,7.20
2019-01-10T08:55:44.504Z,7.83
2019-01-10T08:59:58.254Z,8.20
2019-01-10T09:04:10.880Z,10.17
2019-01-10T09:08:23.113Z,8.67
2019-01-10T09:12:35.705Z,8.00
2019-01-10T09:16:48.154Z,9.13
2019-01-10T09:21:04.523Z,10.23
2019-01-10T09:25:15.137Z,11.30
2019-01-10T09:29:28.640Z,9.63
2019-01-10T09:33:41.788Z,8.53
2019-01-10T09:37:54.166Z,8.10
2019-01-10T09:42:07.148Z,7.87
2019-01-10T09:46:19.524Z,8.53
2019-01-10T09:50:33.372Z,8.37
2019-01-10T09:54:46.476Z,7.47
2019-01-10T09:58:58.773Z,8.40
2019-01-10T10:03:11.654Z,9.20
2019-01-10T10:07:23.994Z,9.13
2019-01-10T10:11:36.697Z,8.27
2019-01-10T10:15:52.630Z,8.50
2019-01-10T10:20:03.678Z,7.87
2019-01-10T10:24:16.147Z,8.10
2019-01-10T10:28:28.638Z,6.93
2019-01-10T10:32:41.630Z,7.77
2019-01-10T10:36:54.034Z,7.03
2019-01-10T10:41:06.668Z,7.70
2019-01-10T10:45:20.043Z,7.43
2019-01-10T10:49:33.651Z,7.60
2019-01-10T10:53:45.996Z,7.30
2019-01-10T10:57:59.457Z,7.53
2019-01-10T11:02:11.840Z,7.13
2019-01-10T11:06:24.595Z,7.37
2019-01-10T11:10:36.997Z,6.77
2019-01-10T11:14:49.429Z,6.63
2019-01-10T11:19:02.046Z,5.77
2019-01-10T11:23:14.398Z,6.70
2019-01-10T11:27:27.397Z,6.47
2019-01-10T11:31:41.093Z,5.53
2019-01-10T11:35:53.659Z,6.27
2019-01-10T11:40:08.001Z,5.07
2019-01-10T11:44:20.535Z,5.57
2019-01-10T11:48:32.923Z,4.87
2019-01-10T11:52:46.049Z,5.10
2019-01-10T11:56:58.847Z,5.70
2019-01-10T12:01:13.207Z,5.50
2019-01-10T12:05:26.053Z,4.40
2019-01-10T12:09:38.757Z,5.23
2019-01-10T12:13:54.927Z,3.80
2019-01-10T12:18:11.265Z,4.40
2019-01-10T12:22:24.009Z,4.53
2019-01-10T12:26:36.804Z,4.57
2019-01-10T12:30:49.309Z,3.87
2019-01-10T12:35:01.816Z,3.50
2019-01-10T12:39:14.597Z,2.90
2019-01-10T12:43:27.085Z,3.70
2019-01-10T12:47:39.879Z,4.07
2019-01-10T12:51:53.516Z,3.50
2019-01-10T12:56:05.981Z,2.80
2019-01-10T13:00:20.347Z,2.60
2019-01-10T13:04:34.029Z,2.80
2019-01-10T13:08:46.741Z,3.17
2019-01-10T13:12:59.645Z,3.27
2019-01-10T13:17:13.612Z,2.83
2019-01-10T13:21:28.529Z,2.90
2019-01-10T13:25:41.049Z,3.37
2019-01-10T13:29:54.061Z,2.90
2019-01-10T13:34:07.080Z,2.50
2019-01-10T13:38:19.691Z,3.20
2019-01-10T13:42:32.210Z,2.97
2019-01-10T13:46:45.203Z,2.77
2019-01-10T13:50:59.054Z,3.00
2019-01-10T13:55:12.769Z,3.17
2019-01-10T13:59:25.504Z,2.47
2019-01-10T14:03:39.119Z,1.83
2019-01-10T14:07:51.640Z,1.83
2019-01-10T14:12:04.463Z,1.87
2019-01-10T14:16:16.866Z,2.07
2019-01-10T14:20:29.712Z,2.50
2019-01-10T14:24:41.964Z,2.70
2019-01-10T14:28:54.367Z,2.03
2019-01-10T14:33:07.852Z,2.17
2019-01-10T14:37:20.768Z,2.50
2019-01-10T14:41:34.448Z,2.70
2019-01-10T14:45:46.995Z,2.63
2019-01-10T14:49:59.717Z,3.17
2019-01-10T14:54:12.175Z,1.80
2019-01-10T14:58:25.316Z,1.70
2019-01-10T15:02:37.717Z,1.23
2019-01-10T15:06:50.101Z,1.60
2019-01-10T15:11:02.860Z,1.90
2019-01-10T15:15:17.279Z,1.97
2019-01-10T15:19:31.100Z,2.03
2019-01-10T15:23:43.561Z,2.70
2019-01-10T15:27:55.968Z,2.50
2019-01-10T15:32:08.723Z,2.27
2019-01-10T15:36:21.396Z,2.47
2019-01-10T15:40:36.684Z,2.80
2019-01-10T15:44:49.442Z,3.23
2019-01-10T15:49:01.935Z,3.13
2019-01-10T15:53:14.864Z,4.13
2019-01-10T15:57:27.288Z,3.07
2019-01-10T16:01:40.173Z,4.10
2019-01-10T16:05:52.624Z,4.00
2019-01-10T16:10:05.913Z,4.50
2019-01-10T16:14:18.400Z,3.93
2019-01-10T16:18:31.167Z,4.27
2019-01-10T16:22:43.824Z,4.00
2019-01-10T16:26:56.633Z,4.07
2019-01-10T16:31:09.294Z,4.87
2019-01-10T16:35:22.335Z,5.00
2019-01-10T16:39:34.725Z,4.40
2019-01-10T16:43:47.613Z,4.50
2019-01-10T16:48:00.235Z,3.50
2019-01-10T16:52:13.153Z,4.00
2019-01-10T16:56:25.722Z,4.17
2019-01-10T17:00:38.601Z,4.37
2019-01-10T17:04:52.339Z,5.73
2019-01-10T17:09:06.520Z,11.87
2019-01-10T17:13:19.340Z,10.17
2019-01-10T17:17:37.536Z,9.23
2019-01-10T17:21:46.203Z,9.63
2019-01-10T17:25:58.869Z,8.63
2019-01-10T17:30:14.825Z,6.47
2019-01-10T17:34:27.460Z,7.10
2019-01-10T17:38:40.061Z,15.93
2019-01-10T17:42:53.136Z,30.97
2019-01-10T17:47:06.156Z,28.50
2019-01-10T17:51:18.635Z,21.70
2019-01-10T17:55:31.467Z,16.67
2019-01-10T17:59:43.953Z,13.50
2019-01-10T18:03:56.813Z,12.53
2019-01-10T18:08:09.282Z,10.30
2019-01-10T18:12:22.257Z,10.47
2019-01-10T18:16:34.850Z,10.10
2019-01-10T18:20:47.896Z,10.70
2019-01-10T18:25:00.262Z,10.47
2019-01-10T18:29:13.052Z,9.20
2019-01-10T18:33:25.775Z,7.80
2019-01-10T18:37:38.761Z,8.60
2019-01-10T18:41:52.230Z,7.97
2019-01-10T18:46:04.727Z,9.07
2019-01-10T18:50:21.845Z,8.77
2019-01-10T18:54:34.753Z,8.10
2019-01-10T18:58:47.638Z,7.77
2019-01-10T19:03:00.687Z,7.27
2019-01-10T19:07:13.437Z,7.70
2019-01-10T19:11:25.828Z,7.97
2019-01-10T19:15:38.737Z,8.10
2019-01-10T19:19:51.421Z,7.47
2019-01-10T19:24:04.371Z,6.43
2019-01-10T19:28:16.793Z,7.40
2019-01-10T19:32:31.513Z,7.33
2019-01-10T19:36:44.494Z,7.40
2019-01-10T19:40:57.048Z,8.70
2019-01-10T19:45:10.536Z,8.70
2019-01-10T19:49:23.489Z,8.20
2019-01-10T19:53:36.036Z,9.93
2019-01-10T19:57:48.529Z,10.60
2019-01-10T20:02:01.290Z,9.20
2019-01-10T20:06:13.691Z,9.17
2019-01-10T20:10:26.528Z,10.03
2019-01-10T20:14:39.040Z,8.90
2019-01-10T20:18:51.438Z,8.33
2019-01-10T20:23:04.927Z,11.60
2019-01-10T20:27:17.961Z,10.63
2019-01-10T20:31:30.761Z,10.73
2019-01-10T20:35:43.269Z,11.13
2019-01-10T20:39:56.769Z,10.70
2019-01-10T20:44:08.966Z,12.77
2019-01-10T20:48:22.534Z,11.57
2019-01-10T20:52:35.550Z,12.83
2019-01-10T20:56:47.941Z,12.73
2019-01-10T21:01:02.194Z,12.27
2019-01-10T21:05:14.558Z,13.13
2019-01-10T21:09:28.611Z,13.23
2019-01-10T21:13:41.369Z,15.47
2019-01-10T21:17:53.829Z,13.73
2019-01-10T21:22:07.257Z,14.70
2019-01-10T21:26:19.573Z,14.07
2019-01-10T21:30:33.012Z,11.27
2019-01-10T21:34:46.468Z,11.10
2019-01-10T21:38:59.396Z,10.77
2019-01-10T21:43:12.973Z,10.87
2019-01-10T21:47:25.335Z,11.80
2019-01-10T21:51:37.745Z,10.67
2019-01-10T21:55:51.121Z,11.10
2019-01-10T22:00:04.375Z,11.23
2019-01-10T22:04:17.272Z,10.87
2019-01-10T22:08:29.669Z,12.20
2019-01-10T22:12:42.033Z,11.93
2019-01-10T22:16:54.897Z,11.30
2019-01-10T22:21:07.328Z,11.10
2019-01-10T22:25:20.895Z,12.90
2019-01-10T22:29:33.847Z,12.57
2019-01-10T22:33:46.703Z,12.97
2019-01-10T22:37:59.576Z,12.43
2019-01-10T22:42:12.031Z,11.83
2019-01-10T22:46:24.870Z,12.43
2019-01-10T22:50:37.456Z,14.10
2019-01-10T22:54:50.323Z,12.33
2019-01-10T22:59:02.800Z,12.70
2019-01-10T23:03:15.767Z,10.57
2019-01-10T23:07:29.443Z,11.27
2019-01-10T23:11:46.227Z,11.50
2019-01-10T23:15:59.254Z,12.10
2019-01-10T23:20:16.297Z,11.17
2019-01-10T23:24:32.332Z,12.77
2019-01-10T23:28:44.932Z,12.63
2019-01-10T23:33:00.431Z,12.83
2019-01-10T23:37:14.903Z,12.07
2019-01-10T23:41:27.985Z,12.37
2019-01-10T23:45:40.424Z,12.90
2019-01-10T23:49:53.923Z,13.87
2019-01-10T23:54:06.292Z,13.17
2019-01-10T23:58:18.981Z,12.60
